createdAt,value
2018-03-03T00:01:05.336Z,-9.50
2018-03-03T00:03:33.018Z,-9.50
2018-03-03T00:06:00.609Z,-9.50
2018-03-03T00:08:28.248Z,-9.50
2018-03-03T00:10:56.617Z,-9.50
2018-03-03T00:13:24.287Z,-9.50
2018-03-03T00:15:51.937Z,-9.50
2018-03-03T00:18:19.604Z,-9.50
2018-03-03T00:20:47.188Z,-9.60
2018-03-03T00:23:14.715Z,-9.60
2018-03-03T00:25:42.316Z,-9.60
2018-03-03T00:28:10.573Z,-9.60
2018-03-03T00:30:38.067Z,-9.70
2018-03-03T00:33:05.576Z,-9.70
2018-03-03T00:35:33.166Z,-9.70
2018-03-03T00:38:01.447Z,-9.70
2018-03-03T00:40:29.691Z,-9.80
2018-03-03T00:42:57.190Z,-9.80
2018-03-03T00:45:24.678Z,-9.80
2018-03-03T00:47:52.236Z,-9.80
2018-03-03T00:50:19.759Z,-9.80
2018-03-03T00:52:48.031Z,-9.80
2018-03-03T00:55:16.288Z,-9.80
2018-03-03T00:57:43.879Z,-9.80
2018-03-03T01:00:11.366Z,-9.80
2018-03-03T01:02:38.869Z,-9.80
2018-03-03T01:05:06.908Z,-9.90
2018-03-03T01:07:34.437Z,-9.90
2018-03-03T01:10:01.934Z,-9.90
2018-03-03T01:12:29.439Z,-9.90
2018-03-03T01:14:57.695Z,-10.00
2018-03-03T01:17:25.277Z,-10.00
2018-03-03T01:19:53.541Z,-10.00
2018-03-03T01:22:21.831Z,-10.10
2018-03-03T01:24:50.093Z,-10.10
2018-03-03T01:27:18.376Z,-10.20
2018-03-03T01:29:46.631Z,-10.20
2018-03-03T01:32:14.140Z,-10.20
2018-03-03T01:34:41.631Z,-10.20
2018-03-03T01:37:09.134Z,-10.30
2018-03-03T01:39:37.383Z,-10.30
2018-03-03T01:42:04.975Z,-10.30
2018-03-03T01:44:32.524Z,-10.30
2018-03-03T01:47:00.784Z,-10.40
2018-03-03T01:49:28.305Z,-10.40
2018-03-03T01:51:55.801Z,-10.40
2018-03-03T01:54:23.379Z,-9.20
2018-03-03T01:56:51.643Z,-9.50
2018-03-03T01:59:19.900Z,-9.90
2018-03-03T02:01:47.389Z,-9.90
2018-03-03T02:04:16.466Z,-10.20
2018-03-03T02:06:43.963Z,-10.20
2018-03-03T02:09:11.459Z,-10.20
2018-03-03T02:11:39.052Z,-10.30
2018-03-03T02:14:07.314Z,-10.40
2018-03-03T02:16:34.822Z,-10.40
2018-03-03T02:19:02.309Z,-10.40
2018-03-03T02:21:29.822Z,-10.40
2018-03-03T02:23:57.303Z,-10.50
2018-03-03T02:26:24.802Z,-10.50
2018-03-03T02:28:52.314Z,-10.50
2018-03-03T02:31:20.769Z,-10.60
2018-03-03T02:33:49.022Z,-10.60
2018-03-03T02:36:16.521Z,-10.70
2018-03-03T02:38:44.021Z,-10.70
2018-03-03T02:41:11.624Z,-10.70
2018-03-03T02:43:39.913Z,-10.80
2018-03-03T02:46:07.411Z,-10.80
2018-03-03T02:48:34.923Z,-10.80
2018-03-03T02:51:03.189Z,-10.90
2018-03-03T02:53:31.462Z,-10.90
2018-03-03T02:55:59.757Z,-10.90
2018-03-03T02:58:28.133Z,-10.90
2018-03-03T03:00:56.409Z,-11.00
2018-03-03T03:03:24.689Z,-11.00
2018-03-03T03:05:52.183Z,-11.00
2018-03-03T03:08:19.690Z,-11.00
2018-03-03T03:10:47.967Z,-11.10
2018-03-03T03:13:16.253Z,-11.10
2018-03-03T03:15:44.514Z,-11.10
2018-03-03T03:18:12.020Z,-11.10
2018-03-03T03:20:39.507Z,-11.20
2018-03-03T03:23:06.998Z,-11.20
2018-03-03T03:25:35.276Z,-11.10
2018-03-03T03:28:03.550Z,-11.20
2018-03-03T03:30:31.837Z,-11.20
2018-03-03T03:33:00.103Z,-11.20
2018-03-03T03:35:28.374Z,-11.20
2018-03-03T03:37:56.759Z,-11.30
2018-03-03T03:40:25.110Z,-11.30
2018-03-03T03:42:52.606Z,-11.30
2018-03-03T03:45:20.846Z,-11.30
2018-03-03T03:47:48.370Z,-11.40
2018-03-03T03:50:15.858Z,-11.40
2018-03-03T03:52:43.359Z,-11.40
2018-03-03T03:55:10.911Z,-11.40
2018-03-03T03:57:39.171Z,-11.40
2018-03-03T04:00:06.743Z,-11.40
2018-03-03T04:02:35.020Z,-11.50
2018-03-03T04:05:03.279Z,-11.50
2018-03-03T04:07:30.782Z,-11.50
2018-03-03T04:09:58.314Z,-11.50
2018-03-03T04:12:26.587Z,-11.60
2018-03-03T04:14:54.864Z,-11.60
2018-03-03T04:17:23.128Z,-11.50
2018-03-03T04:19:50.622Z,-11.60
2018-03-03T04:22:18.121Z,-11.60
2018-03-03T04:24:45.612Z,-11.70
2018-03-03T04:27:13.888Z,-11.70
2018-03-03T04:29:42.155Z,-11.70
2018-03-03T04:32:09.654Z,-11.70
2018-03-03T04:34:37.185Z,-11.80
2018-03-03T04:37:05.458Z,-11.80
2018-03-03T04:39:32.951Z,-11.80
2018-03-03T04:42:00.469Z,-11.80
2018-03-03T04:44:28.743Z,-11.90
2018-03-03T04:46:56.944Z,-11.90
2018-03-03T04:49:25.203Z,-11.80
2018-03-03T04:51:52.698Z,-11.90
2018-03-03T04:54:20.189Z,-11.80
2018-03-03T04:56:47.681Z,-11.90
2018-03-03T05:02:22.613Z,-11.90
2018-03-03T05:04:51.036Z,-11.90
2018-03-03T05:07:19.459Z,-11.90
2018-03-03T05:09:46.943Z,-11.90
2018-03-03T05:12:15.407Z,-11.90
2018-03-03T05:14:58.547Z,-11.90
2018-03-03T05:17:26.056Z,-11.90
2018-03-03T05:19:59.153Z,-12.00
2018-03-03T05:22:32.325Z,-12.00
2018-03-03T05:28:21.592Z,-12.10
2018-03-03T05:31:03.987Z,-12.10
2018-03-03T05:33:37.268Z,-12.10
2018-03-03T05:36:10.567Z,-12.10
2018-03-03T05:41:50.566Z,-12.20
2018-03-03T05:44:24.518Z,-12.20
2018-03-03T05:46:57.637Z,-12.20
2018-03-03T05:49:30.854Z,-12.20
2018-03-03T05:52:04.982Z,-12.20
2018-03-03T05:57:37.979Z,-12.20
2018-03-03T06:00:11.831Z,-12.20
2018-03-03T06:02:45.192Z,-12.20
2018-03-03T06:05:18.437Z,-12.20
2018-03-03T06:07:51.516Z,-12.20
2018-03-03T06:10:24.608Z,-12.20
2018-03-03T06:12:52.096Z,-12.20
2018-03-03T06:15:19.596Z,-12.20
2018-03-03T06:17:47.078Z,-12.20
2018-03-03T06:20:14.578Z,-12.20
2018-03-03T06:22:42.835Z,-12.10
2018-03-03T06:25:10.419Z,-12.10
2018-03-03T06:27:38.669Z,-12.10
2018-03-03T06:30:06.266Z,-12.10
2018-03-03T06:32:34.532Z,-11.90
2018-03-03T06:35:02.795Z,-11.90
2018-03-03T06:37:31.110Z,-11.90
2018-03-03T06:39:59.344Z,-11.80
2018-03-03T06:42:26.832Z,-11.80
2018-03-03T06:44:55.090Z,-11.60
2018-03-03T06:47:23.374Z,-11.50
2018-03-03T06:49:51.628Z,-11.50
2018-03-03T06:52:19.133Z,-11.50
2018-03-03T06:54:46.668Z,-11.40
2018-03-03T06:57:14.946Z,-11.10
2018-03-03T06:59:43.192Z,-11.00
2018-03-03T07:02:10.778Z,-11.00
2018-03-03T07:04:39.154Z,-10.70
2018-03-03T07:07:06.658Z,-10.80
2018-03-03T07:09:34.181Z,-10.60
2018-03-03T07:12:01.677Z,-10.50
2018-03-03T07:17:29.158Z,-10.30
2018-03-03T07:19:56.639Z,-10.30
2018-03-03T07:22:24.256Z,-10.20
2018-03-03T07:24:51.733Z,-10.10
2018-03-03T07:27:19.229Z,-9.90
2018-03-03T07:29:46.708Z,-9.90
2018-03-03T07:32:14.957Z,-9.50
2018-03-03T07:34:42.445Z,-9.60
2018-03-03T07:37:10.714Z,-9.50
2018-03-03T07:39:38.985Z,-9.30
2018-03-03T07:42:06.474Z,-9.30
2018-03-03T07:44:34.065Z,-9.20
2018-03-03T07:47:01.552Z,-8.90
2018-03-03T07:49:29.038Z,-8.70
2018-03-03T07:51:57.306Z,-8.40
2018-03-03T07:54:25.562Z,-8.40
2018-03-03T07:57:04.821Z,-8.40
2018-03-03T07:59:33.093Z,-7.80
2018-03-03T08:02:00.650Z,-7.90
2018-03-03T08:04:28.901Z,-7.60
2018-03-03T08:06:56.483Z,-7.60
2018-03-03T08:09:24.750Z,-7.40
2018-03-03T08:11:52.348Z,-7.40
2018-03-03T08:14:19.839Z,-7.20
2018-03-03T08:16:47.330Z,-7.00
2018-03-03T08:19:15.644Z,-6.70
2018-03-03T08:21:43.101Z,-6.70
2018-03-03T08:24:10.619Z,-6.70
2018-03-03T08:26:38.222Z,-6.50
2018-03-03T08:29:05.793Z,-6.40
2018-03-03T08:31:33.331Z,-6.20
2018-03-03T08:34:00.916Z,-5.80
2018-03-03T08:36:28.462Z,-5.60
2018-03-03T08:38:55.942Z,-5.60
2018-03-03T08:41:23.448Z,-5.60
2018-03-03T08:43:51.789Z,-5.30
2018-03-03T08:46:19.297Z,-5.30
2018-03-03T08:48:46.789Z,-5.10
2018-03-03T08:51:15.054Z,-4.90
2018-03-03T08:53:42.605Z,-4.70
2018-03-03T08:56:10.116Z,-4.60
2018-03-03T08:58:37.615Z,-4.00
2018-03-03T09:01:05.107Z,-4.00
2018-03-03T09:03:32.630Z,-3.50
2018-03-03T09:06:00.194Z,-3.20
2018-03-03T09:08:27.786Z,-3.10
2018-03-03T09:10:55.328Z,-2.80
2018-03-03T09:13:23.515Z,-2.60
2018-03-03T09:15:51.007Z,-2.70
2018-03-03T09:18:18.491Z,-2.70
2018-03-03T09:20:46.745Z,-2.80
2018-03-03T09:23:14.348Z,-2.80
2018-03-03T09:25:41.992Z,-2.80
2018-03-03T09:28:10.268Z,-1.90
2018-03-03T09:30:38.543Z,-1.70
2018-03-03T09:33:06.812Z,-1.60
2018-03-03T09:35:35.086Z,-1.50
2018-03-03T09:38:03.364Z,-1.00
2018-03-03T09:40:31.664Z,-0.70
2018-03-03T09:42:59.157Z,-0.70
2018-03-03T09:45:26.652Z,-1.10
2018-03-03T09:47:55.205Z,-1.00
2018-03-03T09:50:22.799Z,-1.00
2018-03-03T09:52:51.069Z,-0.30
2018-03-03T09:55:18.557Z,-0.30
2018-03-03T09:57:46.047Z,0.00
2018-03-03T10:00:13.549Z,0.10
2018-03-03T10:02:41.803Z,0.80
2018-03-03T10:05:09.415Z,0.70
2018-03-03T10:07:40.404Z,0.90
2018-03-03T10:10:08.683Z,0.60
2018-03-03T10:12:36.204Z,0.60
2018-03-03T10:15:04.595Z,0.70
2018-03-03T10:17:32.106Z,0.70
2018-03-03T10:20:00.370Z,1.30
2018-03-03T10:22:28.709Z,1.30
2018-03-03T10:24:56.195Z,1.30
2018-03-03T10:27:23.681Z,1.70
2018-03-03T10:29:51.932Z,1.70
2018-03-03T10:32:19.417Z,1.70
2018-03-03T10:34:47.670Z,1.80
2018-03-03T10:37:15.252Z,1.80
2018-03-03T10:39:43.545Z,2.40
2018-03-03T10:42:11.825Z,2.70
2018-03-03T10:44:39.395Z,2.70
2018-03-03T10:47:06.886Z,3.00
2018-03-03T10:49:34.408Z,3.10
2018-03-03T10:52:05.187Z,3.50
2018-03-03T10:54:32.774Z,3.30
2018-03-03T10:57:01.034Z,3.30
2018-03-03T10:59:28.610Z,3.30
2018-03-03T11:01:56.857Z,2.90
2018-03-03T11:04:25.878Z,2.70
2018-03-03T11:06:54.122Z,2.70
2018-03-03T11:09:21.721Z,2.70
2018-03-03T11:11:50.017Z,3.50
2018-03-03T11:14:17.505Z,3.50
2018-03-03T11:16:45.035Z,4.10
2018-03-03T11:19:12.531Z,4.20
2018-03-03T11:21:40.167Z,4.10
2018-03-03T11:24:07.654Z,4.30
2018-03-03T11:26:35.152Z,4.00
2018-03-03T11:29:03.401Z,3.80
2018-03-03T11:31:30.986Z,3.80
2018-03-03T11:33:59.256Z,4.10
2018-03-03T11:36:27.516Z,4.10
2018-03-03T11:38:54.995Z,4.10
2018-03-03T11:41:23.243Z,3.90
2018-03-03T11:43:50.849Z,3.90
2018-03-03T11:46:18.432Z,4.10
2018-03-03T11:48:46.661Z,4.60
2018-03-03T11:51:15.030Z,4.70
2018-03-03T11:53:42.520Z,4.70
2018-03-03T11:56:10.001Z,4.60
2018-03-03T11:58:37.492Z,4.90
2018-03-03T12:01:05.002Z,4.80
2018-03-03T12:03:32.549Z,4.80
2018-03-03T12:06:00.037Z,4.40
2018-03-03T12:08:27.549Z,4.50
2018-03-03T12:10:55.933Z,4.30
2018-03-03T12:13:24.254Z,4.30
2018-03-03T12:15:51.751Z,4.30
2018-03-03T12:18:19.336Z,4.60
2018-03-03T12:20:47.626Z,4.50
2018-03-03T12:23:15.128Z,4.40
2018-03-03T12:25:42.629Z,4.50
2018-03-03T12:28:10.917Z,4.80
2018-03-03T12:30:38.396Z,4.80
2018-03-03T12:33:05.954Z,4.90
2018-03-03T12:35:33.427Z,5.00
2018-03-03T12:38:00.912Z,5.10
2018-03-03T12:40:28.493Z,5.10
2018-03-03T12:42:56.753Z,5.10
2018-03-03T12:45:24.240Z,5.10
2018-03-03T12:47:52.497Z,5.10
2018-03-03T12:50:19.994Z,5.10
2018-03-03T12:52:47.490Z,4.80
2018-03-03T12:55:14.974Z,5.00
2018-03-03T12:57:43.243Z,5.30
2018-03-03T13:00:10.821Z,5.30
2018-03-03T13:02:39.078Z,4.90
2018-03-03T13:05:06.579Z,4.80
2018-03-03T13:07:34.074Z,4.80
2018-03-03T13:10:01.571Z,4.50
2018-03-03T13:12:29.864Z,4.10
2018-03-03T13:14:57.352Z,4.10
2018-03-03T13:17:24.850Z,4.50
2018-03-03T13:19:52.334Z,4.50
2018-03-03T13:22:19.823Z,4.50
2018-03-03T13:24:47.311Z,4.50
2018-03-03T13:27:14.926Z,4.40
2018-03-03T13:32:33.066Z,4.00
2018-03-03T13:35:01.338Z,3.90
2018-03-03T13:37:29.603Z,3.50
2018-03-03T13:39:57.900Z,3.50
2018-03-03T13:42:25.465Z,3.50
2018-03-03T13:44:52.954Z,3.50
2018-03-03T13:47:20.453Z,3.40
2018-03-03T13:49:47.932Z,3.00
2018-03-03T13:52:16.194Z,3.20
2018-03-03T13:54:44.494Z,3.30
2018-03-03T13:57:11.988Z,3.30
2018-03-03T13:59:39.469Z,3.50
2018-03-03T14:02:06.984Z,3.30
2018-03-03T14:04:34.462Z,3.50
2018-03-03T14:07:01.974Z,3.20
2018-03-03T14:09:31.072Z,3.00
2018-03-03T14:11:58.551Z,3.00
2018-03-03T14:14:26.066Z,3.00
2018-03-03T14:16:53.557Z,2.90
2018-03-03T14:19:21.046Z,3.00
2018-03-03T14:21:48.562Z,2.90
2018-03-03T14:24:16.835Z,2.60
2018-03-03T14:26:45.086Z,2.60
2018-03-03T14:29:13.367Z,2.30
2018-03-03T14:31:41.626Z,2.10
2018-03-03T14:34:09.242Z,2.10
2018-03-03T14:36:36.726Z,2.00
2018-03-03T14:39:04.227Z,2.30
2018-03-03T14:41:32.519Z,2.50
2018-03-03T14:44:00.778Z,2.20
2018-03-03T14:46:29.078Z,2.10
2018-03-03T14:48:56.580Z,2.10
2018-03-03T14:51:24.067Z,1.90
2018-03-03T14:53:51.651Z,1.80
2018-03-03T14:56:19.993Z,1.50
2018-03-03T14:58:47.497Z,1.50
2018-03-03T15:01:14.980Z,1.50
2018-03-03T15:03:42.475Z,1.40
2018-03-03T15:06:10.069Z,1.00
2018-03-03T15:08:37.585Z,1.10
2018-03-03T15:11:05.069Z,1.10
2018-03-03T15:13:33.366Z,1.20
2018-03-03T15:16:01.038Z,1.20
2018-03-03T15:18:28.580Z,1.10
2018-03-03T15:20:56.840Z,0.80
2018-03-03T15:23:24.410Z,0.80
2018-03-03T15:25:52.655Z,0.80
2018-03-03T15:28:20.139Z,0.70
2018-03-03T15:30:48.431Z,0.70
2018-03-03T15:33:15.992Z,0.70
2018-03-03T15:35:44.248Z,0.40
2018-03-03T15:38:11.741Z,0.40
2018-03-03T15:40:39.273Z,0.20
2018-03-03T15:43:07.534Z,-0.10
2018-03-03T15:45:35.053Z,-0.10
2018-03-03T15:48:02.569Z,-0.20
2018-03-03T15:50:30.827Z,-0.50
2018-03-03T15:52:58.366Z,-0.60
2018-03-03T15:55:25.857Z,-0.70
2018-03-03T15:57:54.137Z,-0.80
2018-03-03T16:00:22.386Z,-0.90
2018-03-03T16:02:49.873Z,-0.90
2018-03-03T16:05:18.151Z,-1.00
2018-03-03T16:07:46.441Z,-1.20
2018-03-03T16:10:13.983Z,-1.20
2018-03-03T16:12:42.299Z,-1.30
2018-03-03T16:15:09.952Z,-1.40
2018-03-03T16:17:37.435Z,-1.40
2018-03-03T16:20:04.930Z,-1.50
2018-03-03T16:22:32.432Z,-1.50
2018-03-03T16:25:00.018Z,-1.50
2018-03-03T16:27:27.591Z,-1.60
2018-03-03T16:29:55.906Z,-1.80
2018-03-03T16:32:24.176Z,-1.80
2018-03-03T16:34:52.505Z,-1.90
2018-03-03T16:37:20.001Z,-1.90
2018-03-03T16:39:47.499Z,-2.00
2018-03-03T16:42:14.994Z,-2.00
2018-03-03T16:44:42.494Z,-2.10
2018-03-03T16:47:10.802Z,-2.20
2018-03-03T16:49:38.331Z,-2.20
2018-03-03T16:52:06.628Z,-2.30
2018-03-03T16:54:34.146Z,-2.30
2018-03-03T16:57:01.637Z,-2.40
2018-03-03T16:59:29.193Z,-2.50
2018-03-03T17:01:56.706Z,-2.50
2018-03-03T17:04:24.193Z,-2.60
2018-03-03T17:06:52.561Z,-2.60
2018-03-03T17:09:20.858Z,-2.70
2018-03-03T17:11:49.118Z,-2.80
2018-03-03T17:14:16.604Z,-2.80
2018-03-03T17:16:44.099Z,-2.80
2018-03-03T17:19:12.287Z,-2.90
2018-03-03T17:21:39.783Z,-3.00
2018-03-03T17:24:08.053Z,-3.10
2018-03-03T17:26:36.337Z,-3.10
2018-03-03T17:29:04.587Z,-3.20
2018-03-03T17:31:32.077Z,-3.20
2018-03-03T17:33:59.581Z,-3.30
2018-03-03T17:36:27.078Z,-3.30
2018-03-03T17:38:55.368Z,-3.30
2018-03-03T17:41:22.878Z,-3.40
2018-03-03T17:43:50.381Z,-3.40
2018-03-03T17:46:18.648Z,-3.50
2018-03-03T17:48:46.923Z,-3.60
2018-03-03T17:51:14.447Z,-3.60
2018-03-03T17:53:42.018Z,-3.60
2018-03-03T17:56:09.514Z,-3.70
2018-03-03T17:58:36.993Z,-3.70
2018-03-03T18:01:04.503Z,-3.70
2018-03-03T18:03:31.978Z,-3.70
2018-03-03T18:06:00.262Z,-3.80
2018-03-03T18:08:27.814Z,-3.80
2018-03-03T18:10:56.095Z,-3.90
2018-03-03T18:13:31.599Z,-3.90
2018-03-03T18:15:59.395Z,-3.90
2018-03-03T18:18:28.432Z,-3.90
2018-03-03T18:20:55.920Z,-3.90
2018-03-03T18:23:23.727Z,-3.90
2018-03-03T18:25:52.033Z,-4.00
2018-03-03T18:28:19.537Z,-4.00
2018-03-03T18:30:47.070Z,-4.00
2018-03-03T18:33:14.619Z,-4.10
2018-03-03T18:35:42.117Z,-4.20
2018-03-03T18:38:09.616Z,-4.20
2018-03-03T18:40:37.119Z,-4.20
2018-03-03T18:43:04.615Z,-4.20
2018-03-03T18:45:33.055Z,-4.30
2018-03-03T18:48:00.805Z,-4.30
2018-03-03T18:50:28.297Z,-4.40
2018-03-03T18:52:55.833Z,-4.40
2018-03-03T18:55:23.367Z,-4.40
2018-03-03T18:57:50.902Z,-4.50
2018-03-03T19:00:19.178Z,-4.50
2018-03-03T19:02:46.662Z,-4.60
2018-03-03T19:05:14.146Z,-4.60
2018-03-03T19:07:41.667Z,-4.60
2018-03-03T19:10:09.156Z,-4.60
2018-03-03T19:12:36.690Z,-4.70
2018-03-03T19:15:04.200Z,-4.70
2018-03-03T19:17:32.466Z,-4.80
2018-03-03T19:19:59.957Z,-4.80
2018-03-03T19:22:28.254Z,-4.90
2018-03-03T19:24:55.736Z,-4.90
2018-03-03T19:27:23.228Z,-4.90
2018-03-03T19:29:50.789Z,-4.90
2018-03-03T19:32:18.271Z,-5.00
2018-03-03T19:34:46.516Z,-5.10
2018-03-03T19:37:14.015Z,-5.10
2018-03-03T19:39:41.501Z,-5.20
2018-03-03T19:42:08.992Z,-4.10
2018-03-03T19:44:36.487Z,-3.80
2018-03-03T19:47:03.985Z,-4.20
2018-03-03T19:49:31.466Z,-4.50
2018-03-03T19:51:59.079Z,-4.70
2018-03-03T19:54:26.555Z,-4.90
2018-03-03T19:56:57.617Z,-5.00
2018-03-03T19:59:25.272Z,-5.10
2018-03-03T20:01:52.768Z,-5.20
2018-03-03T20:04:21.015Z,-5.40
2018-03-03T20:06:48.517Z,-5.40
2018-03-03T20:09:16.070Z,-5.40
2018-03-03T20:11:44.320Z,-5.60
2018-03-03T20:14:11.897Z,-5.60
2018-03-03T20:16:40.144Z,-5.70
2018-03-03T20:19:07.641Z,-5.70
2018-03-03T20:21:36.009Z,-5.70
2018-03-03T20:24:04.276Z,-5.80
2018-03-03T20:26:33.258Z,-5.90
2018-03-03T20:29:00.779Z,-5.90
2018-03-03T20:31:28.308Z,-5.80
2018-03-03T20:33:56.580Z,-5.90
2018-03-03T20:36:24.850Z,-5.90
2018-03-03T20:38:53.108Z,-5.90
2018-03-03T20:41:20.623Z,-5.90
2018-03-03T20:43:48.139Z,-6.00
2018-03-03T20:46:15.704Z,-6.00
2018-03-03T20:48:43.950Z,-6.10
2018-03-03T20:51:11.454Z,-6.10
2018-03-03T20:53:39.703Z,-6.00
2018-03-03T20:56:07.371Z,-6.10
2018-03-03T20:58:35.654Z,-6.10
2018-03-03T21:01:03.923Z,-6.10
2018-03-03T21:03:31.408Z,-6.10
2018-03-03T21:05:58.913Z,-6.10
2018-03-03T21:08:26.402Z,-6.20
2018-03-03T21:10:53.886Z,-6.20
2018-03-03T21:13:21.400Z,-6.20
2018-03-03T21:15:48.916Z,-6.20
2018-03-03T21:18:16.410Z,-6.20
2018-03-03T21:20:43.927Z,-6.20
2018-03-03T21:23:11.414Z,-6.30
2018-03-03T21:25:38.919Z,-6.30
2018-03-03T21:28:07.200Z,-6.30
2018-03-03T21:30:35.475Z,-6.40
2018-03-03T21:33:03.720Z,-6.40
2018-03-03T21:35:31.312Z,-6.40
2018-03-03T21:37:59.593Z,-6.40
2018-03-03T21:40:27.867Z,-6.30
2018-03-03T21:42:56.258Z,-6.40
2018-03-03T21:45:23.726Z,-6.40
2018-03-03T21:47:51.225Z,-6.00
2018-03-03T21:50:18.744Z,-5.70
2018-03-03T21:52:46.239Z,-5.40
2018-03-03T21:55:13.740Z,-5.30
2018-03-03T21:57:42.112Z,-5.70
2018-03-03T22:00:10.361Z,-5.90
2018-03-03T22:02:37.843Z,-5.90
2018-03-03T22:05:06.135Z,-6.20
2018-03-03T22:07:33.689Z,-6.20
2018-03-03T22:10:01.934Z,-6.30
2018-03-03T22:12:29.442Z,-6.40
2018-03-03T22:14:57.000Z,-6.30
2018-03-03T22:17:24.475Z,-6.40
2018-03-03T22:19:51.992Z,-6.40
2018-03-03T22:22:20.243Z,-6.50
2018-03-03T22:24:47.739Z,-6.60
2018-03-03T22:27:15.317Z,-6.60
2018-03-03T22:29:42.791Z,-6.60
2018-03-03T22:32:10.309Z,-6.60
2018-03-03T22:34:38.577Z,-6.70
2018-03-03T22:37:06.853Z,-6.70
2018-03-03T22:39:35.100Z,-6.70
2018-03-03T22:42:02.602Z,-6.70
2018-03-03T22:44:30.861Z,-6.70
2018-03-03T22:46:59.138Z,-6.70
2018-03-03T22:49:27.465Z,-6.80
2018-03-03T22:51:54.971Z,-6.80
2018-03-03T22:54:23.261Z,-6.40
2018-03-03T22:56:51.600Z,-6.00
2018-03-03T22:59:19.086Z,-6.00
2018-03-03T23:01:47.333Z,-5.70
2018-03-03T23:04:14.836Z,-5.70
2018-03-03T23:06:43.096Z,-6.20
2018-03-03T23:09:11.365Z,-6.40
2018-03-03T23:11:39.675Z,-6.60
2018-03-03T23:14:07.202Z,-6.60
2018-03-03T23:16:34.666Z,-6.70
2018-03-03T23:19:02.191Z,-6.80
2018-03-03T23:21:29.680Z,-6.80
2018-03-03T23:23:57.951Z,-6.90
2018-03-03T23:26:25.539Z,-6.90
2018-03-03T23:28:53.872Z,-7.00
2018-03-03T23:31:21.358Z,-7.10
2018-03-03T23:33:49.625Z,-7.20
2018-03-03T23:36:17.298Z,-7.20
2018-03-03T23:38:45.558Z,-7.20
2018-03-03T23:41:13.140Z,-7.20
2018-03-03T23:43:40.698Z,-7.20
2018-03-03T23:46:08.953Z,-7.40
2018-03-03T23:48:36.471Z,-7.40
2018-03-03T23:51:04.015Z,-7.30
2018-03-03T23:53:31.497Z,-7.50
2018-03-03T23:55:59.026Z,-7.50
2018-03-03T23:58:26.512Z,-7.50
